createdAt,value
2018-12-29T00:00:56.310Z,8.90
2018-12-29T00:03:24.512Z,11.33
2018-12-29T00:05:51.899Z,9.53
2018-12-29T00:08:19.326Z,8.10
2018-12-29T00:10:46.827Z,6.73
2018-12-29T00:13:14.489Z,6.50
2018-12-29T00:15:41.925Z,5.30
2018-12-29T00:18:09.308Z,6.87
2018-12-29T00:20:36.722Z,9.30
2018-12-29T00:23:04.188Z,9.80
2018-12-29T00:25:33.267Z,9.53
2018-12-29T00:28:00.660Z,7.17
2018-12-29T00:30:28.139Z,6.03
2018-12-29T00:32:55.523Z,8.10
2018-12-29T00:35:22.925Z,10.07
2018-12-29T00:37:50.620Z,9.40
2018-12-29T00:40:18.006Z,11.23
2018-12-29T00:42:45.423Z,10.50
2018-12-29T00:45:13.316Z,6.40
2018-12-29T00:47:40.695Z,4.77
2018-12-29T00:50:08.091Z,10.00
2018-12-29T00:52:36.004Z,8.93
2018-12-29T00:55:03.427Z,7.50
2018-12-29T00:57:30.819Z,5.30
2018-12-29T00:59:58.344Z,4.27
2018-12-29T01:02:25.735Z,5.27
2018-12-29T01:04:53.111Z,6.50
2018-12-29T01:07:20.563Z,8.83
2018-12-29T01:09:48.084Z,9.60
2018-12-29T01:12:16.053Z,10.23
2018-12-29T01:14:43.905Z,14.70
2018-12-29T01:17:11.292Z,10.73
2018-12-29T01:19:38.683Z,12.73
2018-12-29T01:22:06.125Z,7.13
2018-12-29T01:24:33.502Z,8.40
2018-12-29T01:27:00.892Z,5.20
2018-12-29T01:29:28.458Z,6.87
2018-12-29T01:31:55.848Z,7.13
2018-12-29T01:34:23.239Z,5.67
2018-12-29T01:36:50.650Z,6.20
2018-12-29T01:39:18.038Z,10.30
2018-12-29T01:41:45.414Z,9.13
2018-12-29T01:44:13.025Z,6.00
2018-12-29T01:46:40.409Z,6.47
2018-12-29T01:49:07.831Z,7.27
2018-12-29T01:51:35.362Z,10.47
2018-12-29T01:54:02.764Z,7.13
2018-12-29T01:56:30.150Z,8.50
2018-12-29T01:58:57.829Z,5.87
2018-12-29T02:01:25.114Z,7.20
2018-12-29T02:03:52.505Z,5.23
2018-12-29T02:06:19.937Z,10.07
2018-12-29T02:08:47.326Z,7.13
2018-12-29T02:11:14.990Z,8.90
2018-12-29T02:13:42.975Z,8.60
2018-12-29T02:16:10.378Z,10.33
2018-12-29T02:18:37.765Z,7.57
2018-12-29T02:21:05.287Z,5.77
2018-12-29T02:23:32.671Z,6.80
2018-12-29T02:26:00.066Z,6.40
2018-12-29T02:28:27.854Z,8.03
2018-12-29T02:30:55.254Z,11.30
2018-12-29T02:33:22.625Z,5.63
2018-12-29T02:35:50.466Z,5.60
2018-12-29T02:38:17.830Z,9.50
2018-12-29T02:40:46.594Z,5.97
2018-12-29T02:43:14.542Z,5.93
2018-12-29T02:45:41.935Z,6.73
2018-12-29T02:48:09.318Z,6.93
2018-12-29T02:50:37.017Z,5.90
2018-12-29T02:53:04.401Z,5.00
2018-12-29T02:55:31.807Z,6.13
2018-12-29T02:57:59.287Z,10.77
2018-12-29T03:00:26.673Z,10.33
2018-12-29T03:02:54.080Z,8.17
2018-12-29T03:05:21.516Z,6.70
2018-12-29T03:07:48.911Z,6.87
2018-12-29T03:10:16.319Z,5.97
2018-12-29T03:12:43.802Z,5.53
2018-12-29T03:15:11.385Z,5.30
2018-12-29T03:17:38.774Z,11.03
2018-12-29T03:20:06.503Z,5.10
2018-12-29T03:22:33.897Z,7.93
2018-12-29T03:25:01.285Z,5.80
2018-12-29T03:27:28.991Z,8.37
2018-12-29T03:29:56.385Z,6.73
2018-12-29T03:32:23.775Z,8.63
2018-12-29T03:34:51.300Z,6.83
2018-12-29T03:37:18.699Z,6.43
2018-12-29T03:39:46.106Z,5.53
2018-12-29T03:42:13.632Z,8.43
2018-12-29T03:44:41.328Z,9.77
2018-12-29T03:47:08.729Z,7.47
2018-12-29T03:49:36.135Z,5.43
2018-12-29T03:52:03.544Z,5.80
2018-12-29T03:54:30.948Z,5.30
2018-12-29T03:56:58.403Z,9.13
2018-12-29T03:59:25.796Z,6.63
2018-12-29T04:01:53.199Z,10.03
2018-12-29T04:04:20.727Z,8.83
2018-12-29T04:06:48.145Z,6.70
2018-12-29T04:09:35.293Z,6.63
2018-12-29T04:12:24.012Z,8.33
2018-12-29T04:14:51.988Z,11.93
2018-12-29T04:17:21.683Z,10.13
2018-12-29T04:19:50.220Z,7.87
2018-12-29T04:22:18.290Z,5.73
2018-12-29T04:24:45.695Z,5.13
2018-12-29T04:27:13.138Z,5.60
2018-12-29T04:29:40.818Z,6.47
2018-12-29T04:32:08.194Z,5.50
2018-12-29T04:34:35.587Z,6.00
2018-12-29T04:37:03.026Z,6.60
2018-12-29T04:39:30.427Z,6.17
2018-12-29T04:41:57.826Z,8.20
2018-12-29T04:44:25.251Z,7.20
2018-12-29T04:46:52.694Z,8.83
2018-12-29T04:49:20.097Z,7.70
2018-12-29T04:51:47.937Z,8.90
2018-12-29T04:54:15.345Z,6.60
2018-12-29T04:56:42.751Z,5.30
2018-12-29T04:59:10.432Z,7.27
2018-12-29T05:01:37.842Z,8.47
2018-12-29T05:04:24.831Z,7.50
2018-12-29T05:06:52.299Z,6.73
2018-12-29T05:09:19.692Z,6.80
2018-12-29T05:11:47.135Z,7.80
2018-12-29T05:14:14.534Z,7.00
2018-12-29T05:16:42.138Z,12.50
2018-12-29T05:19:09.576Z,9.33
2018-12-29T05:21:37.157Z,5.93
2018-12-29T05:24:04.542Z,6.53
2018-12-29T05:26:31.974Z,5.00
2018-12-29T05:28:59.354Z,6.40
2018-12-29T05:31:26.766Z,8.53
2018-12-29T05:33:54.297Z,4.60
2018-12-29T05:36:21.694Z,4.83
2018-12-29T05:38:49.083Z,5.57
2018-12-29T05:41:16.503Z,5.57
2018-12-29T05:43:43.886Z,8.70
2018-12-29T05:46:11.277Z,7.70
2018-12-29T05:48:38.727Z,10.90
2018-12-29T05:51:06.114Z,6.80
2018-12-29T05:53:33.498Z,6.03
2018-12-29T05:56:01.403Z,7.40
2018-12-29T05:58:28.795Z,5.80
2018-12-29T06:00:56.178Z,9.53
2018-12-29T06:03:23.700Z,9.63
2018-12-29T06:05:51.207Z,6.67
2018-12-29T06:08:18.706Z,6.07
2018-12-29T06:10:46.135Z,8.30
2018-12-29T06:13:13.514Z,7.20
2018-12-29T06:15:40.810Z,9.67
2018-12-29T06:18:08.234Z,10.83
2018-12-29T06:20:35.643Z,8.33
2018-12-29T06:23:03.033Z,10.40
2018-12-29T06:25:30.479Z,8.13
2018-12-29T06:27:57.858Z,7.00
2018-12-29T06:30:25.234Z,7.27
2018-12-29T06:32:52.706Z,7.37
2018-12-29T06:35:20.094Z,7.70
2018-12-29T06:37:47.489Z,5.80
2018-12-29T06:40:15.029Z,15.60
2018-12-29T06:42:42.406Z,7.80
2018-12-29T06:45:09.794Z,6.40
2018-12-29T06:47:37.498Z,7.23
2018-12-29T06:50:04.946Z,6.60
2018-12-29T06:52:32.406Z,8.57
2018-12-29T06:54:59.806Z,9.57
2018-12-29T06:57:27.198Z,6.67
2018-12-29T06:59:54.585Z,9.53
2018-12-29T07:02:22.075Z,10.77
2018-12-29T07:04:49.453Z,8.00
2018-12-29T07:07:16.941Z,10.17
2018-12-29T07:09:44.458Z,6.80
2018-12-29T07:12:11.842Z,9.47
2018-12-29T07:14:39.226Z,8.37
2018-12-29T07:17:06.661Z,5.93
2018-12-29T07:19:34.048Z,6.50
2018-12-29T07:22:01.419Z,8.03
2018-12-29T07:24:28.922Z,9.27
2018-12-29T07:26:56.311Z,8.00
2018-12-29T07:29:23.698Z,11.77
2018-12-29T07:31:51.399Z,14.57
2018-12-29T07:34:18.783Z,12.90
2018-12-29T07:36:46.174Z,16.67
2018-12-29T07:39:13.744Z,16.70
2018-12-29T07:41:41.122Z,17.30
2018-12-29T07:44:08.523Z,17.40
2018-12-29T07:46:36.293Z,15.40
2018-12-29T07:49:03.675Z,17.53
2018-12-29T07:51:31.074Z,15.53
2018-12-29T07:53:58.502Z,26.43
2018-12-29T07:56:25.883Z,24.57
2018-12-29T07:58:53.278Z,27.50
2018-12-29T08:01:20.786Z,28.87
2018-12-29T08:03:48.178Z,27.20
2018-12-29T08:06:15.721Z,27.33
2018-12-29T08:08:43.307Z,29.77
2018-12-29T08:11:10.686Z,40.93
2018-12-29T08:13:38.086Z,34.20
2018-12-29T08:16:05.541Z,35.83
2018-12-29T08:18:32.926Z,42.43
2018-12-29T08:21:00.313Z,33.47
2018-12-29T08:23:27.804Z,37.90
2018-12-29T08:25:55.198Z,34.33
2018-12-29T08:28:22.604Z,30.60
2018-12-29T08:30:50.074Z,36.17
2018-12-29T08:33:17.481Z,32.70
2018-12-29T08:35:44.877Z,33.73
2018-12-29T08:38:12.316Z,24.83
2018-12-29T08:40:39.700Z,27.70
2018-12-29T08:43:07.081Z,24.80
2018-12-29T08:45:34.639Z,24.53
2018-12-29T08:48:02.074Z,34.40
2018-12-29T08:50:29.476Z,30.73
2018-12-29T08:52:56.911Z,35.20
2018-12-29T08:55:24.297Z,33.87
2018-12-29T08:57:51.698Z,30.80
2018-12-29T09:00:19.041Z,25.70
2018-12-29T09:02:46.711Z,28.53
2018-12-29T09:05:14.100Z,31.77
2018-12-29T09:07:41.831Z,36.87
2018-12-29T09:10:09.515Z,33.60
2018-12-29T09:12:36.834Z,36.30
2018-12-29T09:15:04.574Z,30.03
2018-12-29T09:17:31.978Z,34.43
2018-12-29T09:19:59.382Z,34.45
2018-12-29T09:22:26.866Z,50.27
2018-12-29T09:24:56.438Z,39.83
2018-12-29T09:27:23.826Z,69.23
2018-12-29T09:29:51.283Z,38.80
2018-12-29T09:32:18.699Z,42.87
2018-12-29T09:34:46.083Z,50.73
2018-12-29T09:37:13.517Z,48.23
2018-12-29T09:39:40.911Z,42.10
2018-12-29T09:42:08.305Z,40.20
2018-12-29T09:44:36.418Z,47.20
2018-12-29T09:47:03.854Z,44.20
2018-12-29T09:49:31.257Z,54.13
2018-12-29T09:51:58.766Z,66.17
2018-12-29T09:54:26.170Z,45.60
2018-12-29T09:56:53.553Z,65.37
2018-12-29T09:59:21.076Z,53.50
2018-12-29T10:01:48.490Z,57.37
2018-12-29T10:04:15.913Z,54.27
2018-12-29T10:06:43.351Z,62.63
2018-12-29T10:09:10.886Z,62.77
2018-12-29T10:11:38.263Z,59.57
2018-12-29T10:14:05.823Z,55.33
2018-12-29T10:16:33.223Z,48.23
2018-12-29T10:19:00.630Z,55.23
2018-12-29T10:21:28.148Z,56.87
2018-12-29T10:23:55.538Z,49.57
2018-12-29T10:26:22.940Z,49.73
2018-12-29T10:28:50.535Z,60.27
2018-12-29T10:31:17.973Z,62.67
2018-12-29T10:33:45.689Z,56.60
2018-12-29T10:36:13.157Z,57.43
2018-12-29T10:38:40.623Z,52.27
2018-12-29T10:41:08.046Z,49.33
2018-12-29T10:43:35.833Z,46.03
2018-12-29T10:46:03.297Z,56.07
2018-12-29T10:48:30.718Z,51.03
2018-12-29T10:50:58.251Z,45.97
2018-12-29T10:53:25.710Z,53.23
2018-12-29T10:55:53.108Z,47.57
2018-12-29T10:58:20.911Z,58.20
2018-12-29T11:00:48.315Z,51.37
2018-12-29T11:03:15.735Z,56.87
2018-12-29T11:05:43.182Z,54.20
2018-12-29T11:08:10.675Z,49.20
2018-12-29T11:10:38.196Z,55.10
2018-12-29T11:13:05.629Z,53.67
2018-12-29T11:15:33.047Z,51.70
2018-12-29T11:18:00.355Z,48.67
2018-12-29T11:20:27.807Z,43.00
2018-12-29T11:22:55.203Z,49.33
2018-12-29T11:25:22.595Z,45.87
2018-12-29T11:27:50.038Z,54.20
2018-12-29T11:30:17.443Z,46.00
2018-12-29T11:32:44.841Z,51.87
2018-12-29T11:35:12.326Z,41.55
2018-12-29T11:37:39.716Z,43.10
2018-12-29T11:40:07.142Z,48.63
2018-12-29T11:42:34.569Z,44.40
2018-12-29T11:45:01.958Z,41.13
2018-12-29T11:47:30.782Z,43.00
2018-12-29T11:50:01.782Z,49.55
2018-12-29T11:52:31.485Z,39.60
2018-12-29T11:55:07.080Z,47.07
2018-12-29T11:57:46.301Z,41.97
2018-12-29T12:00:32.892Z,52.67
2018-12-29T12:03:04.079Z,47.73
2018-12-29T12:05:50.769Z,44.50
2018-12-29T12:08:24.915Z,48.90
2018-12-29T12:11:03.019Z,44.40
2018-12-29T12:13:42.726Z,47.60
2018-12-29T12:16:17.253Z,48.00
2018-12-29T12:18:58.052Z,43.23
2018-12-29T12:21:26.582Z,50.50
2018-12-29T12:24:15.515Z,52.23
2018-12-29T12:26:49.583Z,46.80
2018-12-29T12:29:27.512Z,50.13
2018-12-29T12:32:05.189Z,48.73
2018-12-29T12:34:40.924Z,52.10
2018-12-29T12:37:18.817Z,46.97
2018-12-29T12:39:53.033Z,49.40
2018-12-29T12:42:30.916Z,54.80
2018-12-29T12:44:58.324Z,46.87
2018-12-29T12:47:25.756Z,46.90
2018-12-29T12:49:54.390Z,51.87
2018-12-29T12:52:22.139Z,55.10
2018-12-29T12:54:49.553Z,41.97
2018-12-29T12:57:17.356Z,39.00
2018-12-29T12:59:45.152Z,46.20
2018-12-29T13:02:12.551Z,48.27
2018-12-29T13:04:40.275Z,48.17
2018-12-29T13:07:07.743Z,53.67
2018-12-29T13:09:35.293Z,48.93
2018-12-29T13:12:02.872Z,46.80
2018-12-29T13:14:30.334Z,42.60
2018-12-29T13:16:59.631Z,46.27
2018-12-29T13:19:28.616Z,49.13
2018-12-29T13:21:56.277Z,41.50
2018-12-29T13:24:23.694Z,38.90
2018-12-29T13:26:51.139Z,36.30
2018-12-29T13:29:18.758Z,35.63
2018-12-29T13:31:46.173Z,41.13
2018-12-29T13:34:13.567Z,45.20
2018-12-29T13:36:41.027Z,45.83
2018-12-29T13:39:08.453Z,39.10
2018-12-29T13:41:35.899Z,44.40
2018-12-29T13:44:03.751Z,40.57
2018-12-29T13:46:31.195Z,37.10
2018-12-29T13:49:01.389Z,49.60
2018-12-29T13:51:29.083Z,45.67
2018-12-29T13:53:56.557Z,51.97
2018-12-29T13:56:24.390Z,50.53
2018-12-29T13:58:51.896Z,43.60
2018-12-29T14:01:19.320Z,47.63
2018-12-29T14:03:47.024Z,36.80
2018-12-29T14:06:14.483Z,34.23
2018-12-29T14:08:46.256Z,41.57
2018-12-29T14:11:13.671Z,39.23
2018-12-29T14:13:41.230Z,37.13
2018-12-29T14:16:08.648Z,46.10
2018-12-29T14:18:36.047Z,53.33
2018-12-29T14:21:03.876Z,49.20
2018-12-29T14:23:31.704Z,47.13
2018-12-29T14:25:59.086Z,41.53
2018-12-29T14:28:26.570Z,46.53
2018-12-29T14:30:53.999Z,43.83
2018-12-29T14:33:21.400Z,50.77
2018-12-29T14:35:48.951Z,43.27
2018-12-29T14:38:16.355Z,37.93
2018-12-29T14:40:43.661Z,40.27
2018-12-29T14:43:11.198Z,40.27
2018-12-29T14:45:38.773Z,44.00
2018-12-29T14:48:06.875Z,43.73
2018-12-29T14:50:34.779Z,43.00
2018-12-29T14:53:08.624Z,52.67
2018-12-29T14:55:36.526Z,42.90
2018-12-29T14:58:04.165Z,37.93
2018-12-29T15:00:31.654Z,33.30
2018-12-29T15:02:59.229Z,32.07
2018-12-29T15:05:26.878Z,45.30
2018-12-29T15:07:54.646Z,49.73
2018-12-29T15:10:22.603Z,35.60
2018-12-29T15:12:50.355Z,33.60
2018-12-29T15:15:17.937Z,32.70
2018-12-29T15:17:45.545Z,42.30
2018-12-29T15:20:13.628Z,57.23
2018-12-29T15:22:41.038Z,52.50
2018-12-29T15:25:08.649Z,49.10
2018-12-29T15:27:36.937Z,50.03
2018-12-29T15:30:06.867Z,56.50
2018-12-29T15:32:34.398Z,56.07
2018-12-29T15:35:04.098Z,46.67
2018-12-29T15:37:31.699Z,40.13
2018-12-29T15:39:59.270Z,36.73
2018-12-29T15:42:27.234Z,47.20
2018-12-29T15:44:54.675Z,43.87
2018-12-29T15:47:22.338Z,48.37
2018-12-29T15:49:50.360Z,51.07
2018-12-29T15:52:17.915Z,37.30
2018-12-29T15:54:45.697Z,50.10
2018-12-29T15:57:13.369Z,35.73
2018-12-29T15:59:41.264Z,46.80
2018-12-29T16:02:08.871Z,52.03
2018-12-29T16:04:36.466Z,40.07
2018-12-29T16:07:04.026Z,42.87
2018-12-29T16:09:32.178Z,44.30
2018-12-29T16:12:00.424Z,58.73
2018-12-29T16:14:35.213Z,54.00
2018-12-29T16:16:57.275Z,42.60
2018-12-29T16:19:24.905Z,44.13
2018-12-29T16:21:52.293Z,47.60
2018-12-29T16:24:21.823Z,46.47
2018-12-29T16:26:49.487Z,43.53
2018-12-29T16:29:16.897Z,36.80
2018-12-29T16:31:44.307Z,31.90
2018-12-29T16:34:12.374Z,42.77
2018-12-29T16:36:39.835Z,43.93
2018-12-29T16:39:07.339Z,34.00
2018-12-29T16:41:34.789Z,35.67
2018-12-29T16:44:02.193Z,36.40
2018-12-29T16:46:29.605Z,43.90
2018-12-29T16:48:57.028Z,52.00
2018-12-29T16:51:24.427Z,41.80
2018-12-29T16:53:51.827Z,34.43
2018-12-29T16:56:19.439Z,38.43
2018-12-29T16:58:46.838Z,29.97
2018-12-29T17:01:14.235Z,35.13
2018-12-29T17:03:42.366Z,33.40
2018-12-29T17:06:09.780Z,48.07
2018-12-29T17:08:37.301Z,48.47
2018-12-29T17:11:05.219Z,52.30
2018-12-29T17:13:33.031Z,50.10
2018-12-29T17:16:00.679Z,46.30
2018-12-29T17:18:28.140Z,34.57
2018-12-29T17:20:55.555Z,34.87
2018-12-29T17:23:22.940Z,36.53
2018-12-29T17:25:50.478Z,30.10
2018-12-29T17:28:17.788Z,35.77
2018-12-29T17:30:45.182Z,40.20
2018-12-29T17:33:12.632Z,46.57
2018-12-29T17:35:40.015Z,39.37
2018-12-29T17:38:07.724Z,40.93
2018-12-29T17:40:35.155Z,59.57
2018-12-29T17:43:02.591Z,55.57
2018-12-29T17:45:29.987Z,45.10
2018-12-29T17:47:57.523Z,52.87
2018-12-29T17:50:25.321Z,37.37
2018-12-29T17:52:52.773Z,38.53
2018-12-29T17:55:20.251Z,45.37
2018-12-29T17:57:48.051Z,36.80
2018-12-29T18:00:15.451Z,45.90
2018-12-29T18:02:43.271Z,43.50
2018-12-29T18:05:10.655Z,56.83
2018-12-29T18:07:38.078Z,45.27
2018-12-29T18:10:06.101Z,37.40
2018-12-29T18:12:34.200Z,36.47
2018-12-29T18:15:01.617Z,35.30
2018-12-29T18:17:29.212Z,40.47
2018-12-29T18:19:56.661Z,31.80
2018-12-29T18:22:24.092Z,35.03
2018-12-29T18:24:51.887Z,34.73
2018-12-29T18:27:19.301Z,40.50
2018-12-29T18:29:47.587Z,37.27
2018-12-29T18:32:15.376Z,41.27
2018-12-29T18:34:42.779Z,41.53
2018-12-29T18:37:10.195Z,28.30
2018-12-29T18:39:37.965Z,31.50
2018-12-29T18:42:05.355Z,31.57
2018-12-29T18:44:32.771Z,30.37
2018-12-29T18:47:00.336Z,25.53
2018-12-29T18:49:28.110Z,25.27
2018-12-29T18:51:55.470Z,33.00
2018-12-29T18:54:22.998Z,28.53
2018-12-29T18:56:50.386Z,20.90
2018-12-29T18:59:17.778Z,23.40
2018-12-29T19:01:45.535Z,35.27
2018-12-29T19:04:12.971Z,26.90
2018-12-29T19:06:40.416Z,24.47
2018-12-29T19:09:07.870Z,30.90
2018-12-29T19:11:35.629Z,23.97
2018-12-29T19:14:03.407Z,24.30
2018-12-29T19:16:30.884Z,22.37
2018-12-29T19:18:58.346Z,20.23
2018-12-29T19:21:25.767Z,24.47
2018-12-29T19:23:53.639Z,24.17
2018-12-29T19:26:21.319Z,22.97
2018-12-29T19:28:49.008Z,30.23
2018-12-29T19:31:16.758Z,39.93
2018-12-29T19:33:44.143Z,48.80
2018-12-29T19:36:11.549Z,50.10
2018-12-29T19:38:39.007Z,35.20
2018-12-29T19:41:06.709Z,51.70
2018-12-29T19:43:34.519Z,40.73
2018-12-29T19:46:02.407Z,50.37
2018-12-29T19:48:29.814Z,36.73
2018-12-29T19:50:57.226Z,45.30
2018-12-29T19:53:24.991Z,49.80
2018-12-29T19:55:52.405Z,39.97
2018-12-29T19:58:19.854Z,31.63
2018-12-29T20:00:47.332Z,30.27
2018-12-29T20:03:15.472Z,27.43
2018-12-29T20:05:43.313Z,31.37
2018-12-29T20:08:10.754Z,26.13
2018-12-29T20:10:38.397Z,30.40
2018-12-29T20:13:06.234Z,30.67
2018-12-29T20:15:33.698Z,19.90
2018-12-29T20:18:01.095Z,24.23
2018-12-29T20:20:28.528Z,25.03
2018-12-29T20:22:56.348Z,20.17
2018-12-29T20:25:24.335Z,23.60
2018-12-29T20:27:51.919Z,19.83
2018-12-29T20:30:19.704Z,32.77
2018-12-29T20:32:47.333Z,35.33
2018-12-29T20:35:15.268Z,31.93
2018-12-29T20:37:43.362Z,26.73
2018-12-29T20:40:11.831Z,20.43
2018-12-29T20:42:40.831Z,27.60
2018-12-29T20:45:08.498Z,29.90
2018-12-29T20:47:35.918Z,27.33
2018-12-29T20:50:09.582Z,23.53
2018-12-29T20:52:33.553Z,27.97
2018-12-29T20:55:01.203Z,35.03
2018-12-29T20:57:28.779Z,23.90
2018-12-29T20:59:56.383Z,28.27
2018-12-29T21:02:23.961Z,21.20
2018-12-29T21:04:51.483Z,28.57
2018-12-29T21:07:18.935Z,22.80
2018-12-29T21:09:46.731Z,23.87
2018-12-29T21:12:15.147Z,30.47
2018-12-29T21:14:42.887Z,41.97
2018-12-29T21:17:10.445Z,30.97
2018-12-29T21:19:38.010Z,28.83
2018-12-29T21:22:07.407Z,26.40
2018-12-29T21:24:34.986Z,27.67
2018-12-29T21:27:02.555Z,24.50
2018-12-29T21:29:30.189Z,25.20
2018-12-29T21:31:57.735Z,18.90
2018-12-29T21:34:25.324Z,20.27
2018-12-29T21:36:52.924Z,16.87
2018-12-29T21:39:20.500Z,20.57
2018-12-29T21:41:48.088Z,24.93
2018-12-29T21:44:15.587Z,23.00
2018-12-29T21:46:43.162Z,21.57
2018-12-29T21:49:10.547Z,21.40
2018-12-29T21:51:37.979Z,21.63
2018-12-29T21:54:05.395Z,25.00
2018-12-29T21:56:32.790Z,35.80
2018-12-29T21:59:01.657Z,29.60
2018-12-29T22:01:29.058Z,19.70
2018-12-29T22:03:56.471Z,19.00
2018-12-29T22:06:23.934Z,26.40
2018-12-29T22:08:51.551Z,22.37
2018-12-29T22:11:19.288Z,27.53
2018-12-29T22:13:47.754Z,23.57
2018-12-29T22:16:15.149Z,21.50
2018-12-29T22:18:42.466Z,34.40
2018-12-29T22:21:09.997Z,28.80
2018-12-29T22:23:38.789Z,36.40
2018-12-29T22:26:06.198Z,30.70
2018-12-29T22:28:33.856Z,22.80
2018-12-29T22:31:02.446Z,23.17
2018-12-29T22:33:29.846Z,23.80
2018-12-29T22:35:57.308Z,20.17
2018-12-29T22:38:24.697Z,21.97
2018-12-29T22:40:52.094Z,25.03
2018-12-29T22:43:19.663Z,22.20
2018-12-29T22:45:47.087Z,30.80
2018-12-29T22:48:14.487Z,28.10
2018-12-29T22:50:42.014Z,30.33
2018-12-29T22:53:09.435Z,26.77
2018-12-29T22:55:36.870Z,21.60
2018-12-29T22:58:08.613Z,16.97
2018-12-29T23:00:39.038Z,20.17
2018-12-29T23:03:06.789Z,21.73
2018-12-29T23:05:34.203Z,24.63
2018-12-29T23:08:01.626Z,27.47
2018-12-29T23:10:29.212Z,18.70
2018-12-29T23:12:57.102Z,22.40
2018-12-29T23:15:24.799Z,20.50
2018-12-29T23:17:52.270Z,22.77
2018-12-29T23:20:19.667Z,24.30
2018-12-29T23:22:47.063Z,22.43
2018-12-29T23:25:14.523Z,23.60
2018-12-29T23:27:42.226Z,33.47
2018-12-29T23:30:09.626Z,26.53
2018-12-29T23:32:37.693Z,20.40
2018-12-29T23:35:05.114Z,22.30
2018-12-29T23:37:32.522Z,14.97
2018-12-29T23:40:00.590Z,15.03
2018-12-29T23:42:27.997Z,16.07
2018-12-29T23:44:57.214Z,23.10
2018-12-29T23:47:25.258Z,22.40
2018-12-29T23:49:52.651Z,23.57
2018-12-29T23:52:20.060Z,21.60
2018-12-29T23:54:47.498Z,21.00
2018-12-29T23:57:15.105Z,22.97
2018-12-29T23:59:42.498Z,19.77
